createdAt,value
2018-09-30T00:01:54.844Z,8.50
2018-09-30T00:05:57.917Z,8.30
2018-09-30T00:10:01.037Z,8.30
2018-09-30T00:14:04.211Z,8.30
2018-09-30T00:22:10.263Z,8.20
2018-09-30T00:28:21.147Z,8.20
2018-09-30T00:32:24.220Z,8.20
2018-09-30T00:36:27.422Z,8.20
2018-09-30T00:44:33.400Z,7.90
2018-09-30T00:48:36.475Z,7.80
2018-09-30T00:52:39.587Z,7.80
2018-09-30T01:00:46.456Z,7.80
2018-09-30T01:04:49.524Z,7.80
2018-09-30T01:08:52.647Z,7.80
2018-09-30T01:12:55.751Z,7.70
2018-09-30T01:16:58.879Z,7.60
2018-09-30T01:21:01.944Z,7.60
2018-09-30T01:25:05.080Z,7.60
2018-09-30T01:29:08.295Z,7.50
2018-09-30T01:33:11.408Z,7.40
2018-09-30T01:37:14.471Z,7.30
2018-09-30T01:41:17.588Z,7.40
2018-09-30T01:45:20.659Z,7.30
2018-09-30T01:49:23.792Z,7.30
2018-09-30T01:53:26.884Z,7.30
2018-09-30T01:57:30.003Z,7.20
2018-09-30T02:01:33.059Z,7.30
2018-09-30T02:05:36.180Z,7.10
2018-09-30T02:09:39.259Z,7.10
2018-09-30T02:13:42.383Z,7.10
2018-09-30T02:17:45.475Z,7.20
2018-09-30T02:21:48.588Z,7.20
2018-09-30T02:25:51.659Z,7.20
2018-09-30T02:29:54.904Z,7.20
2018-09-30T02:33:57.988Z,8.30
2018-09-30T02:38:01.129Z,7.10
2018-09-30T02:42:04.219Z,7.10
2018-09-30T02:46:07.365Z,7.20
2018-09-30T02:50:10.448Z,7.00
2018-09-30T02:54:13.563Z,6.90
2018-09-30T02:58:16.633Z,6.90
2018-09-30T03:02:19.752Z,6.90
2018-09-30T03:07:29.689Z,6.90
2018-09-30T03:11:32.770Z,6.90
2018-09-30T03:15:35.917Z,6.80
2018-09-30T03:19:39.072Z,6.80
2018-09-30T03:23:42.184Z,6.80
2018-09-30T03:27:45.267Z,6.70
2018-09-30T03:31:48.491Z,6.70
2018-09-30T03:35:51.579Z,6.60
2018-09-30T03:43:58.625Z,6.50
2018-09-30T03:48:01.731Z,6.60
2018-09-30T03:52:04.812Z,6.60
2018-09-30T03:56:07.919Z,6.60
2018-09-30T04:00:10.989Z,6.50
2018-09-30T04:04:14.122Z,6.60
2018-09-30T04:08:17.190Z,6.60
2018-09-30T04:12:20.304Z,6.50
2018-09-30T04:16:23.368Z,6.40
2018-09-30T04:20:26.484Z,6.40
2018-09-30T04:24:29.545Z,6.50
2018-09-30T04:28:32.691Z,6.50
2018-09-30T04:32:35.896Z,6.30
2018-09-30T04:36:39.011Z,6.50
2018-09-30T04:40:42.080Z,6.50
2018-09-30T04:44:45.188Z,6.40
2018-09-30T04:48:48.252Z,6.40
2018-09-30T04:52:51.362Z,6.40
2018-09-30T04:56:54.440Z,6.40
2018-09-30T05:00:57.599Z,6.30
2018-09-30T05:05:00.727Z,6.30
2018-09-30T05:09:04.871Z,6.20
2018-09-30T05:13:07.924Z,6.20
2018-09-30T05:17:11.068Z,6.20
2018-09-30T05:21:14.119Z,6.10
2018-09-30T05:25:17.260Z,6.10
2018-09-30T05:29:20.343Z,6.10
2018-09-30T05:33:23.603Z,6.10
2018-09-30T05:37:26.659Z,6.50
2018-09-30T05:41:29.773Z,6.10
2018-09-30T05:45:32.836Z,6.00
2018-09-30T05:49:35.935Z,6.10
2018-09-30T05:53:39.016Z,6.10
2018-09-30T05:57:42.443Z,6.20
2018-09-30T06:01:45.466Z,6.20
2018-09-30T06:05:48.567Z,6.30
2018-09-30T06:09:51.647Z,5.70
2018-09-30T06:13:54.872Z,6.10
2018-09-30T06:17:57.875Z,6.40
2018-09-30T06:22:01.035Z,6.10
2018-09-30T06:26:04.107Z,6.10
2018-09-30T06:30:07.257Z,6.20
2018-09-30T06:34:10.456Z,6.20
2018-09-30T06:38:13.564Z,6.20
2018-09-30T06:42:16.621Z,6.30
2018-09-30T06:46:19.763Z,6.50
2018-09-30T06:50:22.863Z,6.60
2018-09-30T06:54:25.981Z,6.70
2018-09-30T06:58:29.088Z,6.80
2018-09-30T07:02:32.231Z,7.00
2018-09-30T07:06:35.313Z,7.40
2018-09-30T07:10:38.447Z,7.40
2018-09-30T07:14:41.508Z,7.50
2018-09-30T07:18:44.660Z,7.70
2018-09-30T07:22:47.786Z,7.80
2018-09-30T07:26:50.876Z,8.30
2018-09-30T07:30:53.952Z,8.30
2018-09-30T07:34:57.279Z,8.70
2018-09-30T07:39:00.351Z,8.70
2018-09-30T07:43:03.490Z,11.60
2018-09-30T07:47:06.569Z,9.10
2018-09-30T07:51:09.707Z,9.50
2018-09-30T07:59:15.740Z,9.90
2018-09-30T08:03:18.879Z,10.10
2018-09-30T08:07:22.003Z,10.10
2018-09-30T08:11:25.084Z,10.40
2018-09-30T08:15:28.252Z,10.90
2018-09-30T08:19:31.415Z,11.10
2018-09-30T08:23:34.627Z,11.20
2018-09-30T08:27:37.707Z,11.40
2018-09-30T08:35:48.836Z,11.80
2018-09-30T08:39:52.086Z,12.10
2018-09-30T08:43:55.211Z,12.40
2018-09-30T08:52:01.368Z,12.60
2018-09-30T08:56:04.540Z,12.80
2018-09-30T09:00:07.639Z,13.20
2018-09-30T09:04:10.768Z,13.20
2018-09-30T09:08:13.924Z,13.80
2018-09-30T09:12:17.045Z,13.80
2018-09-30T09:16:20.124Z,14.10
2018-09-30T09:20:23.321Z,14.10
2018-09-30T09:24:27.359Z,14.30
2018-09-30T09:28:30.496Z,14.20
2018-09-30T09:32:37.460Z,14.40
2018-09-30T09:36:40.688Z,14.40
2018-09-30T09:40:43.783Z,14.70
2018-09-30T09:44:46.923Z,14.70
2018-09-30T09:48:50.048Z,15.00
2018-09-30T09:52:53.191Z,15.20
2018-09-30T09:56:56.276Z,15.30
2018-09-30T10:01:03.639Z,15.50
2018-09-30T10:05:06.747Z,15.70
2018-09-30T10:09:09.867Z,16.00
2018-09-30T10:13:12.975Z,16.10
2018-09-30T10:17:16.087Z,16.30
2018-09-30T10:21:19.200Z,16.30
2018-09-30T10:25:22.357Z,16.60
2018-09-30T10:33:28.356Z,16.70
2018-09-30T10:45:37.320Z,16.60
2018-09-30T10:49:40.443Z,16.60
2018-09-30T10:57:46.574Z,16.80
2018-09-30T11:09:55.839Z,16.50
2018-09-30T11:22:04.703Z,16.60
2018-09-30T11:34:13.607Z,16.40
2018-09-30T11:38:16.900Z,16.90
2018-09-30T11:46:22.928Z,17.50
2018-09-30T11:50:26.023Z,17.70
2018-09-30T11:58:32.035Z,16.80
2018-09-30T12:10:41.231Z,16.90
2018-09-30T12:26:52.991Z,16.60
2018-09-30T12:39:01.939Z,17.10
2018-09-30T12:51:11.219Z,16.70
2018-09-30T12:59:17.251Z,17.10
2018-09-30T13:03:20.463Z,17.40
2018-09-30T13:15:29.911Z,17.70
2018-09-30T13:19:32.983Z,17.50
2018-09-30T13:23:36.165Z,17.40
2018-09-30T13:27:39.241Z,17.40
2018-09-30T13:31:42.463Z,17.30
2018-09-30T13:43:51.387Z,17.00
2018-09-30T13:47:54.668Z,16.60
2018-09-30T13:56:00.788Z,16.00
2018-09-30T14:00:03.913Z,16.00
2018-09-30T14:08:10.055Z,16.20
2018-09-30T14:20:18.972Z,16.20
2018-09-30T14:36:30.928Z,16.10
2018-09-30T14:40:34.888Z,16.00
2018-09-30T14:44:38.247Z,15.80
2018-09-30T14:48:41.395Z,15.80
2018-09-30T14:52:44.451Z,15.70
2018-09-30T15:00:50.455Z,15.60
2018-09-30T15:17:02.256Z,15.70
2018-09-30T15:21:05.339Z,15.60
2018-09-30T15:29:20.297Z,15.50
2018-09-30T15:33:23.484Z,15.50
2018-09-30T15:37:26.947Z,15.50
2018-09-30T15:41:30.031Z,15.40
2018-09-30T15:45:33.318Z,15.40
2018-09-30T15:53:39.410Z,15.20
2018-09-30T15:57:42.815Z,15.20
2018-09-30T16:05:48.856Z,15.10
2018-09-30T16:09:51.983Z,14.90
2018-09-30T16:13:55.053Z,14.80
2018-09-30T16:26:04.056Z,14.50
2018-09-30T16:34:10.452Z,14.70
2018-09-30T16:38:13.764Z,14.70
2018-09-30T16:50:22.587Z,14.90
2018-09-30T16:54:25.716Z,14.90
2018-09-30T16:58:28.792Z,14.80
2018-09-30T17:02:31.915Z,14.70
2018-09-30T17:18:44.511Z,14.30
2018-09-30T17:22:47.583Z,14.20
2018-09-30T17:26:50.700Z,14.10
2018-09-30T17:34:57.735Z,13.60
2018-09-30T17:39:01.043Z,13.70
2018-09-30T17:43:04.109Z,13.70
2018-09-30T17:51:10.175Z,13.70
2018-09-30T18:03:19.095Z,13.30
2018-09-30T18:07:22.175Z,13.30
2018-09-30T18:19:31.252Z,13.40
2018-09-30T18:27:37.396Z,13.60
2018-09-30T18:39:46.451Z,13.40
2018-09-30T18:55:58.618Z,12.90
2018-09-30T19:08:07.399Z,12.80
2018-09-30T19:16:13.582Z,12.80
2018-09-30T19:20:16.727Z,12.90
2018-09-30T19:24:19.883Z,12.90
2018-09-30T19:28:23.055Z,12.90
2018-09-30T19:32:26.529Z,12.80
2018-09-30T19:40:32.507Z,12.60
2018-09-30T19:48:38.745Z,12.60
2018-09-30T19:52:41.808Z,12.60
2018-09-30T20:00:47.820Z,12.60
2018-09-30T20:12:57.695Z,12.60
2018-09-30T20:17:00.784Z,12.50
2018-09-30T20:25:06.767Z,12.50
2018-09-30T20:29:09.915Z,12.40
2018-09-30T20:33:13.218Z,12.30
2018-09-30T20:41:19.256Z,12.10
2018-09-30T20:45:22.383Z,12.20
2018-09-30T20:53:28.379Z,12.10
2018-09-30T20:57:31.485Z,12.00
2018-09-30T21:01:34.604Z,12.00
2018-09-30T21:09:42.243Z,12.00
2018-09-30T21:13:45.311Z,11.90
2018-09-30T21:21:51.323Z,11.80
2018-09-30T21:34:00.444Z,11.90
2018-09-30T21:42:06.513Z,11.90
2018-09-30T21:50:12.534Z,11.80
2018-09-30T21:58:18.588Z,11.80
2018-09-30T22:02:21.712Z,11.70
2018-09-30T22:06:24.838Z,11.60
2018-09-30T22:18:33.909Z,12.00
2018-09-30T22:22:37.032Z,12.20
2018-09-30T22:26:40.164Z,12.20
2018-09-30T22:34:46.363Z,12.20
2018-09-30T22:38:49.500Z,12.20
2018-09-30T22:42:52.610Z,12.10
2018-09-30T22:46:55.762Z,12.10
2018-09-30T22:50:58.845Z,11.60
2018-09-30T22:55:01.952Z,11.10
2018-09-30T23:11:13.791Z,11.30
2018-09-30T23:15:16.883Z,11.00
2018-09-30T23:19:20.056Z,11.00
2018-09-30T23:23:23.131Z,11.00
2018-09-30T23:27:26.252Z,11.10
2018-09-30T23:31:29.319Z,11.20
2018-09-30T23:43:38.335Z,11.20
2018-09-30T23:47:41.387Z,11.20
2018-09-30T23:51:44.504Z,11.20
2018-09-30T23:59:50.497Z,10.80
